メインページ
METAR-TAF:

METAR-TAF

空港 :

Smithers, ブリティッシュコロンビア州, カナダ

緯度: 54-49N, 経度: 127-11W, 海抜: 523m

現時点の気象観測

当レポートは36分前の17:00(UTC)に作成
南東の風 7kt
気温 -2°C
湿度 93%
気圧 998 hPa
視程: 40.2km
高度4000ftの雲はほとんどない
高度16000ftの雲は散在している

METAR: CYYD 171700Z 13007KT 25SM FEW040 SCT160 M02/M03 A2946 RMK SC2AC1 SLP998

時間: 09:36 (17:36 UTC)

予報

当レポートは3時間58分前の13:38(UTC)に作成
予報は17日の 14時(UTC)から 18日の 02時(UTC)まで有効
南/南東の風 7kt
視程: 10km
高度1500ftの雲は散在している
高度7000ftの千切れ雲あり
17日の 14時(UTC)から 17日の 18時(UTC)まで一時的に
視程: 8.0km
高度1500ftの千切れ雲あり
小雪, 靄
17日の 1800時(UTC)から
南/南東の風 7kt
視程: 10km
高度1500ftの雲はほとんどない
高度7000ftの雲は散在している
17日の 18時(UTC)から 17日の 22時(UTC)まで一時的に
高度1500ftの雲は散在している
高度7000ftの千切れ雲あり
17日の 2200時(UTC)から
南/南東の風 7kt
視程: 10km
高度5000ftの千切れ雲あり
高度8000ftの曇り
17日の 22時(UTC)から 17日の 24時(UTC)まで一時的に
視程: 8.0km
高度3000ftの千切れ雲あり
高度5000ftの曇り
弱いにわか雨, 靄
18日の 0000時(UTC)から
の風 8kt
視程: 8.0km
高度1500ftの千切れ雲あり
高度3000ftの曇り
弱いにわか雨, 靄

TAF: CYYD 171338Z 1714/1802 15007KT P6SM SCT015 BKN070 TEMPO 1714/1718 5SM -SN BR BKN015 FM171800 15007KT P6SM FEW015 SCT070 TEMPO 1718/1722 SCT015 BKN070 FM172200 16007KT P6SM BKN050 OVC080 TEMPO 1722/1724 5SM -SHRA BR BKN030 OVC050 FM180000 18008KT 5SM -SHRA BR BKN015 OVC030 RMK FCST BASED ON AUTO OBS. NXT FCST BY 171900Z

4,000以上の空港の気象観測と天気予報(METAR報とTAF報)

利用可能な観測所は地図上に黄色い丸と赤い丸で示す。

丸の上にカーソルを重ねると観測所名を参照できる。

次にクリックすると気象観測と天気予報を参照できる。

マップの切り替え:黒色「×」印の緑ボタンをクリックして拡大、「-」印の緑ボタンをクリックして縮小、緑色の三角印をクリックして隣りの地図に切り替え


METAR-TAF: